sensor_id;sensor_type;location;lat;lon;timestamp;P1;durP1;ratioP1;P2;durP2;ratioP2
67749;SDS011;54550;48.838;8.828;2022-12-24T00:02:00;7.43;;;1.57;;
67749;SDS011;54550;48.838;8.828;2022-12-24T00:04:25;6.77;;;1.90;;
67749;SDS011;54550;48.838;8.828;2022-12-24T00:06:51;7.13;;;2.10;;
67749;SDS011;54550;48.838;8.828;2022-12-24T00:09:17;10.20;;;1.77;;
67749;SDS011;54550;48.838;8.828;2022-12-24T00:11:42;10.97;;;1.80;;
67749;SDS011;54550;48.838;8.828;2022-12-24T00:14:08;13.17;;;2.03;;
67749;SDS011;54550;48.838;8.828;2022-12-24T00:16:33;22.70;;;2.57;;
67749;SDS011;54550;48.838;8.828;2022-12-24T00:18:59;14.70;;;2.53;;
67749;SDS011;54550;48.838;8.828;2022-12-24T00:21:24;8.07;;;2.23;;
67749;SDS011;54550;48.838;8.828;2022-12-24T00:23:50;7.80;;;2.40;;
67749;SDS011;54550;48.838;8.828;2022-12-24T00:26:16;14.80;;;2.90;;
67749;SDS011;54550;48.838;8.828;2022-12-24T00:28:41;7.90;;;1.70;;
67749;SDS011;54550;48.838;8.828;2022-12-24T00:31:08;20.23;;;2.50;;
67749;SDS011;54550;48.838;8.828;2022-12-24T00:33:35;6.05;;;1.67;;
67749;SDS011;54550;48.838;8.828;2022-12-24T00:36:00;12.00;;;2.17;;
67749;SDS011;54550;48.838;8.828;2022-12-24T00:38:26;9.43;;;2.00;;
67749;SDS011;54550;48.838;8.828;2022-12-24T00:40:56;10.00;;;2.10;;
67749;SDS011;54550;48.838;8.828;2022-12-24T00:43:23;12.02;;;2.17;;
67749;SDS011;54550;48.838;8.828;2022-12-24T00:45:49;9.43;;;2.33;;
67749;SDS011;54550;48.838;8.828;2022-12-24T00:48:14;19.40;;;2.63;;
67749;SDS011;54550;48.838;8.828;2022-12-24T00:50:40;11.03;;;2.30;;
67749;SDS011;54550;48.838;8.828;2022-12-24T00:53:05;16.53;;;3.30;;
67749;SDS011;54550;48.838;8.828;2022-12-24T00:55:31;17.20;;;3.43;;
67749;SDS011;54550;48.838;8.828;2022-12-24T00:57:56;15.03;;;4.00;;
67749;SDS011;54550;48.838;8.828;2022-12-24T01:00:22;11.20;;;3.67;;
67749;SDS011;54550;48.838;8.828;2022-12-24T01:02:47;5.27;;;2.20;;
67749;SDS011;54550;48.838;8.828;2022-12-24T01:05:13;11.20;;;2.70;;
67749;SDS011;54550;48.838;8.828;2022-12-24T01:07:40;30.83;;;3.93;;
67749;SDS011;54550;48.838;8.828;2022-12-24T01:10:08;18.95;;;3.15;;
67749;SDS011;54550;48.838;8.828;2022-12-24T01:12:35;13.60;;;2.25;;
67749;SDS011;54550;48.838;8.828;2022-12-24T01:15:01;24.27;;;2.97;;
67749;SDS011;54550;48.838;8.828;2022-12-24T01:17:29;12.88;;;2.60;;
67749;SDS011;54550;48.838;8.828;2022-12-24T01:19:56;19.10;;;2.88;;
67749;SDS011;54550;48.838;8.828;2022-12-24T01:22:22;13.80;;;2.40;;
67749;SDS011;54550;48.838;8.828;2022-12-24T01:24:47;11.20;;;2.37;;
67749;SDS011;54550;48.838;8.828;2022-12-24T01:27:13;12.87;;;2.27;;
67749;SDS011;54550;48.838;8.828;2022-12-24T01:29:38;13.17;;;2.63;;
67749;SDS011;54550;48.838;8.828;2022-12-24T01:32:04;10.93;;;2.90;;
67749;SDS011;54550;48.838;8.828;2022-12-24T01:34:29;14.90;;;2.87;;
67749;SDS011;54550;48.838;8.828;2022-12-24T01:36:55;20.77;;;2.50;;
67749;SDS011;54550;48.838;8.828;2022-12-24T01:39:21;20.30;;;3.40;;
67749;SDS011;54550;48.838;8.828;2022-12-24T01:41:46;22.70;;;4.03;;
67749;SDS011;54550;48.838;8.828;2022-12-24T01:44:31;20.63;;;2.88;;
67749;SDS011;54550;48.838;8.828;2022-12-24T01:47:07;15.45;;;3.20;;
67749;SDS011;54550;48.838;8.828;2022-12-24T01:49:33;30.35;;;5.10;;
67749;SDS011;54550;48.838;8.828;2022-12-24T01:52:02;12.13;;;2.80;;
67749;SDS011;54550;48.838;8.828;2022-12-24T01:54:30;31.88;;;3.35;;
67749;SDS011;54550;48.838;8.828;2022-12-24T01:57:04;12.85;;;2.80;;
67749;SDS011;54550;48.838;8.828;2022-12-24T01:59:33;22.38;;;3.22;;
67749;SDS011;54550;48.838;8.828;2022-12-24T02:02:01;20.27;;;3.80;;
67749;SDS011;54550;48.838;8.828;2022-12-24T02:04:32;25.60;;;3.50;;
67749;SDS011;54550;48.838;8.828;2022-12-24T02:07:04;24.00;;;2.90;;
67749;SDS011;54550;48.838;8.828;2022-12-24T02:09:29;17.27;;;5.00;;
67749;SDS011;54550;48.838;8.828;2022-12-24T02:11:56;8.93;;;2.63;;
67749;SDS011;54550;48.838;8.828;2022-12-24T02:14:23;10.70;;;2.38;;
67749;SDS011;54550;48.838;8.828;2022-12-24T02:16:53;14.45;;;4.10;;
67749;SDS011;54550;48.838;8.828;2022-12-24T02:28:06;44.33;;;3.95;;
67749;SDS011;54550;48.838;8.828;2022-12-24T02:30:44;23.70;;;5.38;;
67749;SDS011;54550;48.838;8.828;2022-12-24T02:35:59;18.38;;;3.50;;
67749;SDS011;54550;48.838;8.828;2022-12-24T02:38:34;22.52;;;4.40;;
67749;SDS011;54550;48.838;8.828;2022-12-24T02:41:08;23.88;;;3.50;;
67749;SDS011;54550;48.838;8.828;2022-12-24T02:43:38;32.75;;;3.45;;
67749;SDS011;54550;48.838;8.828;2022-12-24T02:46:12;33.28;;;5.22;;
67749;SDS011;54550;48.838;8.828;2022-12-24T02:48:50;18.63;;;3.70;;
67749;SDS011;54550;48.838;8.828;2022-12-24T02:51:16;11.95;;;3.10;;
67749;SDS011;54550;48.838;8.828;2022-12-24T02:53:47;30.65;;;3.75;;
67749;SDS011;54550;48.838;8.828;2022-12-24T03:07:14;21.83;;;3.47;;
67749;SDS011;54550;48.838;8.828;2022-12-24T03:12:40;34.80;;;5.25;;
67749;SDS011;54550;48.838;8.828;2022-12-24T03:15:11;40.90;;;4.15;;
67749;SDS011;54550;48.838;8.828;2022-12-24T03:17:40;23.13;;;3.38;;
67749;SDS011;54550;48.838;8.828;2022-12-24T03:20:07;15.93;;;2.72;;
67749;SDS011;54550;48.838;8.828;2022-12-24T03:22:35;18.73;;;2.58;;
67749;SDS011;54550;48.838;8.828;2022-12-24T03:25:01;19.13;;;3.63;;
67749;SDS011;54550;48.838;8.828;2022-12-24T03:27:28;18.20;;;2.75;;
67749;SDS011;54550;48.838;8.828;2022-12-24T03:29:56;12.38;;;3.15;;
67749;SDS011;54550;48.838;8.828;2022-12-24T03:32:23;17.55;;;3.33;;
67749;SDS011;54550;48.838;8.828;2022-12-24T03:34:52;31.88;;;3.33;;
67749;SDS011;54550;48.838;8.828;2022-12-24T03:37:17;19.37;;;2.73;;
67749;SDS011;54550;48.838;8.828;2022-12-24T03:39:43;20.70;;;3.30;;
67749;SDS011;54550;48.838;8.828;2022-12-24T03:42:09;22.87;;;2.93;;
67749;SDS011;54550;48.838;8.828;2022-12-24T03:44:34;25.23;;;3.77;;
67749;SDS011;54550;48.838;8.828;2022-12-24T03:47:00;21.23;;;3.53;;
67749;SDS011;54550;48.838;8.828;2022-12-24T03:49:25;28.70;;;4.40;;
67749;SDS011;54550;48.838;8.828;2022-12-24T03:51:51;13.43;;;2.80;;
67749;SDS011;54550;48.838;8.828;2022-12-24T03:54:17;19.50;;;4.47;;
67749;SDS011;54550;48.838;8.828;2022-12-24T03:56:42;21.07;;;3.20;;
67749;SDS011;54550;48.838;8.828;2022-12-24T03:59:08;22.93;;;4.23;;
67749;SDS011;54550;48.838;8.828;2022-12-24T04:01:33;13.73;;;3.70;;
67749;SDS011;54550;48.838;8.828;2022-12-24T04:03:59;16.47;;;2.93;;
67749;SDS011;54550;48.838;8.828;2022-12-24T04:06:24;11.13;;;3.20;;
67749;SDS011;54550;48.838;8.828;2022-12-24T04:08:50;28.27;;;3.33;;
67749;SDS011;54550;48.838;8.828;2022-12-24T04:11:16;20.70;;;3.53;;
67749;SDS011;54550;48.838;8.828;2022-12-24T04:13:42;30.35;;;3.70;;
67749;SDS011;54550;48.838;8.828;2022-12-24T04:16:09;11.85;;;3.08;;
67749;SDS011;54550;48.838;8.828;2022-12-24T04:18:36;9.20;;;2.67;;
67749;SDS011;54550;48.838;8.828;2022-12-24T04:21:03;24.65;;;4.05;;
67749;SDS011;54550;48.838;8.828;2022-12-24T04:23:30;29.13;;;7.07;;
67749;SDS011;54550;48.838;8.828;2022-12-24T04:26:03;22.60;;;3.15;;
67749;SDS011;54550;48.838;8.828;2022-12-24T04:28:30;25.20;;;3.00;;
67749;SDS011;54550;48.838;8.828;2022-12-24T04:31:00;19.80;;;2.70;;
67749;SDS011;54550;48.838;8.828;2022-12-24T04:33:27;18.83;;;3.15;;
67749;SDS011;54550;48.838;8.828;2022-12-24T04:35:53;16.60;;;3.28;;
67749;SDS011;54550;48.838;8.828;2022-12-24T04:38:21;19.48;;;3.20;;
67749;SDS011;54550;48.838;8.828;2022-12-24T04:40:47;13.33;;;2.20;;
67749;SDS011;54550;48.838;8.828;2022-12-24T04:43:12;18.13;;;3.50;;
67749;SDS011;54550;48.838;8.828;2022-12-24T04:45:38;16.20;;;3.30;;
67749;SDS011;54550;48.838;8.828;2022-12-24T04:48:04;44.90;;;4.40;;
67749;SDS011;54550;48.838;8.828;2022-12-24T04:50:29;23.43;;;3.77;;
67749;SDS011;54550;48.838;8.828;2022-12-24T04:52:55;15.53;;;4.80;;
67749;SDS011;54550;48.838;8.828;2022-12-24T04:55:20;21.83;;;3.10;;
67749;SDS011;54550;48.838;8.828;2022-12-24T04:57:46;17.07;;;3.70;;
67749;SDS011;54550;48.838;8.828;2022-12-24T05:00:11;31.27;;;3.87;;
67749;SDS011;54550;48.838;8.828;2022-12-24T05:02:37;19.63;;;4.30;;
67749;SDS011;54550;48.838;8.828;2022-12-24T05:05:03;15.63;;;3.50;;
67749;SDS011;54550;48.838;8.828;2022-12-24T05:07:29;18.15;;;3.47;;
67749;SDS011;54550;48.838;8.828;2022-12-24T05:09:55;27.73;;;4.07;;
67749;SDS011;54550;48.838;8.828;2022-12-24T05:12:20;15.83;;;4.43;;
67749;SDS011;54550;48.838;8.828;2022-12-24T05:14:46;25.07;;;3.97;;
67749;SDS011;54550;48.838;8.828;2022-12-24T05:17:11;23.80;;;2.77;;
67749;SDS011;54550;48.838;8.828;2022-12-24T05:19:37;22.47;;;3.37;;
67749;SDS011;54550;48.838;8.828;2022-12-24T05:22:03;11.50;;;2.10;;
67749;SDS011;54550;48.838;8.828;2022-12-24T05:24:47;20.60;;;2.90;;
67749;SDS011;54550;48.838;8.828;2022-12-24T05:27:31;27.02;;;3.33;;
67749;SDS011;54550;48.838;8.828;2022-12-24T05:29:56;12.43;;;2.60;;
67749;SDS011;54550;48.838;8.828;2022-12-24T05:32:22;20.47;;;2.87;;
67749;SDS011;54550;48.838;8.828;2022-12-24T05:34:47;31.47;;;3.37;;
67749;SDS011;54550;48.838;8.828;2022-12-24T05:37:13;33.03;;;4.57;;
67749;SDS011;54550;48.838;8.828;2022-12-24T05:39:39;27.23;;;2.67;;
67749;SDS011;54550;48.838;8.828;2022-12-24T05:42:04;11.70;;;2.67;;
67749;SDS011;54550;48.838;8.828;2022-12-24T05:44:30;23.67;;;3.87;;
67749;SDS011;54550;48.838;8.828;2022-12-24T05:46:55;31.97;;;4.00;;
67749;SDS011;54550;48.838;8.828;2022-12-24T05:49:21;34.77;;;2.90;;
67749;SDS011;54550;48.838;8.828;2022-12-24T05:51:46;20.47;;;3.77;;
67749;SDS011;54550;48.838;8.828;2022-12-24T05:54:12;14.30;;;3.40;;
67749;SDS011;54550;48.838;8.828;2022-12-24T05:56:37;22.63;;;3.67;;
67749;SDS011;54550;48.838;8.828;2022-12-24T05:59:03;19.70;;;3.10;;
67749;SDS011;54550;48.838;8.828;2022-12-24T06:01:28;16.03;;;3.90;;
67749;SDS011;54550;48.838;8.828;2022-12-24T06:03:55;20.07;;;4.43;;
67749;SDS011;54550;48.838;8.828;2022-12-24T06:06:22;26.30;;;4.43;;
67749;SDS011;54550;48.838;8.828;2022-12-24T06:08:50;21.38;;;4.22;;
67749;SDS011;54550;48.838;8.828;2022-12-24T06:11:18;19.63;;;4.47;;
67749;SDS011;54550;48.838;8.828;2022-12-24T06:13:45;12.10;;;3.25;;
67749;SDS011;54550;48.838;8.828;2022-12-24T06:16:15;22.10;;;3.87;;
67749;SDS011;54550;48.838;8.828;2022-12-24T06:18:42;17.85;;;4.10;;
67749;SDS011;54550;48.838;8.828;2022-12-24T06:21:08;20.63;;;4.00;;
67749;SDS011;54550;48.838;8.828;2022-12-24T06:23:35;26.48;;;4.05;;
67749;SDS011;54550;48.838;8.828;2022-12-24T06:26:02;27.52;;;3.85;;
67749;SDS011;54550;48.838;8.828;2022-12-24T06:28:29;36.25;;;4.70;;
67749;SDS011;54550;48.838;8.828;2022-12-24T06:30:56;25.15;;;3.30;;
67749;SDS011;54550;48.838;8.828;2022-12-24T06:33:22;32.92;;;6.22;;
67749;SDS011;54550;48.838;8.828;2022-12-24T06:35:48;17.93;;;3.47;;
67749;SDS011;54550;48.838;8.828;2022-12-24T06:38:13;18.40;;;3.90;;
67749;SDS011;54550;48.838;8.828;2022-12-24T06:40:40;26.13;;;4.15;;
67749;SDS011;54550;48.838;8.828;2022-12-24T06:43:07;20.25;;;3.95;;
67749;SDS011;54550;48.838;8.828;2022-12-24T06:45:32;44.07;;;5.13;;
67749;SDS011;54550;48.838;8.828;2022-12-24T06:47:58;14.37;;;3.50;;
67749;SDS011;54550;48.838;8.828;2022-12-24T06:50:24;22.48;;;6.35;;
67749;SDS011;54550;48.838;8.828;2022-12-24T06:52:51;24.60;;;3.50;;
67749;SDS011;54550;48.838;8.828;2022-12-24T06:55:17;24.17;;;3.00;;
67749;SDS011;54550;48.838;8.828;2022-12-24T06:57:43;15.27;;;3.10;;
67749;SDS011;54550;48.838;8.828;2022-12-24T07:00:09;21.63;;;3.73;;
67749;SDS011;54550;48.838;8.828;2022-12-24T07:02:39;20.77;;;2.83;;
67749;SDS011;54550;48.838;8.828;2022-12-24T07:05:06;14.05;;;4.13;;
67749;SDS011;54550;48.838;8.828;2022-12-24T07:07:35;19.88;;;4.20;;
67749;SDS011;54550;48.838;8.828;2022-12-24T07:10:03;29.15;;;4.20;;
67749;SDS011;54550;48.838;8.828;2022-12-24T07:12:29;23.55;;;4.63;;
67749;SDS011;54550;48.838;8.828;2022-12-24T07:14:54;18.53;;;4.60;;
67749;SDS011;54550;48.838;8.828;2022-12-24T07:17:20;27.90;;;3.60;;
67749;SDS011;54550;48.838;8.828;2022-12-24T07:19:45;17.93;;;3.43;;
67749;SDS011;54550;48.838;8.828;2022-12-24T07:22:11;34.57;;;7.50;;
67749;SDS011;54550;48.838;8.828;2022-12-24T07:24:36;35.03;;;4.80;;
67749;SDS011;54550;48.838;8.828;2022-12-24T07:27:02;21.70;;;6.40;;
67749;SDS011;54550;48.838;8.828;2022-12-24T07:29:28;22.13;;;4.83;;
67749;SDS011;54550;48.838;8.828;2022-12-24T07:31:53;39.03;;;7.47;;
67749;SDS011;54550;48.838;8.828;2022-12-24T07:34:19;31.00;;;6.00;;
67749;SDS011;54550;48.838;8.828;2022-12-24T07:36:44;19.60;;;5.73;;
67749;SDS011;54550;48.838;8.828;2022-12-24T07:39:10;25.90;;;5.27;;
67749;SDS011;54550;48.838;8.828;2022-12-24T07:41:35;35.00;;;6.33;;
67749;SDS011;54550;48.838;8.828;2022-12-24T07:44:01;14.90;;;3.37;;
67749;SDS011;54550;48.838;8.828;2022-12-24T07:46:26;33.27;;;6.20;;
67749;SDS011;54550;48.838;8.828;2022-12-24T07:48:52;29.83;;;4.43;;
67749;SDS011;54550;48.838;8.828;2022-12-24T07:51:18;15.43;;;3.70;;
67749;SDS011;54550;48.838;8.828;2022-12-24T07:53:43;32.43;;;3.67;;
67749;SDS011;54550;48.838;8.828;2022-12-24T07:56:12;17.55;;;3.17;;
67749;SDS011;54550;48.838;8.828;2022-12-24T07:58:39;24.55;;;3.60;;
67749;SDS011;54550;48.838;8.828;2022-12-24T08:01:05;19.58;;;2.92;;
67749;SDS011;54550;48.838;8.828;2022-12-24T08:03:30;11.80;;;3.80;;
67749;SDS011;54550;48.838;8.828;2022-12-24T08:05:56;26.60;;;6.07;;
67749;SDS011;54550;48.838;8.828;2022-12-24T08:08:22;27.67;;;3.92;;
67749;SDS011;54550;48.838;8.828;2022-12-24T08:10:48;35.90;;;3.73;;
67749;SDS011;54550;48.838;8.828;2022-12-24T08:13:14;30.33;;;4.07;;
67749;SDS011;54550;48.838;8.828;2022-12-24T08:15:40;24.27;;;3.80;;
67749;SDS011;54550;48.838;8.828;2022-12-24T08:18:06;21.67;;;2.80;;
67749;SDS011;54550;48.838;8.828;2022-12-24T08:20:31;17.20;;;3.27;;
67749;SDS011;54550;48.838;8.828;2022-12-24T08:22:57;20.27;;;2.80;;
67749;SDS011;54550;48.838;8.828;2022-12-24T08:25:22;38.10;;;5.97;;
67749;SDS011;54550;48.838;8.828;2022-12-24T08:27:48;25.07;;;4.03;;
67749;SDS011;54550;48.838;8.828;2022-12-24T08:30:13;24.27;;;3.87;;
67749;SDS011;54550;48.838;8.828;2022-12-24T08:32:39;25.10;;;3.60;;
67749;SDS011;54550;48.838;8.828;2022-12-24T08:35:05;18.63;;;2.93;;
67749;SDS011;54550;48.838;8.828;2022-12-24T08:37:31;17.83;;;3.17;;
67749;SDS011;54550;48.838;8.828;2022-12-24T08:39:56;26.97;;;3.60;;
67749;SDS011;54550;48.838;8.828;2022-12-24T08:42:22;11.33;;;2.90;;
67749;SDS011;54550;48.838;8.828;2022-12-24T08:44:48;20.10;;;3.20;;
67749;SDS011;54550;48.838;8.828;2022-12-24T08:47:13;21.67;;;4.20;;
67749;SDS011;54550;48.838;8.828;2022-12-24T08:49:39;23.13;;;3.50;;
67749;SDS011;54550;48.838;8.828;2022-12-24T08:52:05;17.80;;;4.67;;
67749;SDS011;54550;48.838;8.828;2022-12-24T08:54:30;19.20;;;2.83;;
67749;SDS011;54550;48.838;8.828;2022-12-24T08:56:56;29.53;;;3.30;;
67749;SDS011;54550;48.838;8.828;2022-12-24T08:59:22;18.47;;;4.07;;
67749;SDS011;54550;48.838;8.828;2022-12-24T09:01:48;16.73;;;3.45;;
67749;SDS011;54550;48.838;8.828;2022-12-24T09:04:14;15.97;;;3.03;;
67749;SDS011;54550;48.838;8.828;2022-12-24T09:06:39;15.23;;;3.77;;
67749;SDS011;54550;48.838;8.828;2022-12-24T09:09:05;18.47;;;4.00;;
67749;SDS011;54550;48.838;8.828;2022-12-24T09:11:32;17.60;;;3.40;;
67749;SDS011;54550;48.838;8.828;2022-12-24T09:13:58;22.10;;;3.60;;
67749;SDS011;54550;48.838;8.828;2022-12-24T09:16:25;12.55;;;2.85;;
67749;SDS011;54550;48.838;8.828;2022-12-24T09:18:50;26.27;;;3.30;;
67749;SDS011;54550;48.838;8.828;2022-12-24T09:21:16;42.30;;;3.67;;
67749;SDS011;54550;48.838;8.828;2022-12-24T09:23:43;25.05;;;3.05;;
67749;SDS011;54550;48.838;8.828;2022-12-24T09:28:42;10.63;;;2.53;;
67749;SDS011;54550;48.838;8.828;2022-12-24T09:31:08;25.77;;;4.00;;
67749;SDS011;54550;48.838;8.828;2022-12-24T09:33:35;22.02;;;3.13;;
67749;SDS011;54550;48.838;8.828;2022-12-24T09:36:03;18.13;;;3.03;;
67749;SDS011;54550;48.838;8.828;2022-12-24T09:38:29;17.30;;;2.75;;
67749;SDS011;54550;48.838;8.828;2022-12-24T09:40:55;21.70;;;4.30;;
67749;SDS011;54550;48.838;8.828;2022-12-24T09:43:24;12.10;;;3.50;;
67749;SDS011;54550;48.838;8.828;2022-12-24T09:48:41;15.32;;;3.22;;
67749;SDS011;54550;48.838;8.828;2022-12-24T09:51:11;13.50;;;2.42;;
67749;SDS011;54550;48.838;8.828;2022-12-24T09:53:56;23.55;;;3.50;;
67749;SDS011;54550;48.838;8.828;2022-12-24T09:56:25;26.02;;;3.80;;
67749;SDS011;54550;48.838;8.828;2022-12-24T09:59:02;15.02;;;3.50;;
67749;SDS011;54550;48.838;8.828;2022-12-24T10:01:30;9.13;;;2.27;;
67749;SDS011;54550;48.838;8.828;2022-12-24T10:04:02;18.42;;;3.25;;
67749;SDS011;54550;48.838;8.828;2022-12-24T10:09:23;11.73;;;3.10;;
67749;SDS011;54550;48.838;8.828;2022-12-24T10:12:07;14.23;;;3.07;;
67749;SDS011;54550;48.838;8.828;2022-12-24T10:14:53;22.10;;;3.10;;
67749;SDS011;54550;48.838;8.828;2022-12-24T10:17:40;25.33;;;6.23;;
67749;SDS011;54550;48.838;8.828;2022-12-24T10:20:30;19.00;;;3.67;;
67749;SDS011;54550;48.838;8.828;2022-12-24T10:26:14;13.00;;;2.60;;
67749;SDS011;54550;48.838;8.828;2022-12-24T10:28:49;19.23;;;4.17;;
67749;SDS011;54550;48.838;8.828;2022-12-24T10:31:22;24.33;;;4.33;;
67749;SDS011;54550;48.838;8.828;2022-12-24T10:33:54;18.53;;;3.40;;
67749;SDS011;54550;48.838;8.828;2022-12-24T10:36:27;21.53;;;2.80;;
67749;SDS011;54550;48.838;8.828;2022-12-24T10:38:53;26.30;;;3.43;;
67749;SDS011;54550;48.838;8.828;2022-12-24T10:41:19;16.80;;;3.73;;
67749;SDS011;54550;48.838;8.828;2022-12-24T10:43:45;17.63;;;3.40;;
67749;SDS011;54550;48.838;8.828;2022-12-24T10:46:19;17.70;;;3.65;;
67749;SDS011;54550;48.838;8.828;2022-12-24T10:49:06;12.68;;;3.55;;
67749;SDS011;54550;48.838;8.828;2022-12-24T10:51:41;15.55;;;3.08;;
67749;SDS011;54550;48.838;8.828;2022-12-24T10:54:13;21.75;;;3.83;;
67749;SDS011;54550;48.838;8.828;2022-12-24T10:56:42;19.45;;;4.65;;
67749;SDS011;54550;48.838;8.828;2022-12-24T10:59:23;18.73;;;3.42;;
67749;SDS011;54550;48.838;8.828;2022-12-24T11:04:58;15.88;;;3.50;;
67749;SDS011;54550;48.838;8.828;2022-12-24T11:07:25;16.25;;;3.45;;
67749;SDS011;54550;48.838;8.828;2022-12-24T11:10:04;21.63;;;3.17;;
67749;SDS011;54550;48.838;8.828;2022-12-24T11:12:32;28.45;;;4.38;;
67749;SDS011;54550;48.838;8.828;2022-12-24T11:15:02;18.15;;;4.05;;
67749;SDS011;54550;48.838;8.828;2022-12-24T11:17:28;18.10;;;2.30;;
67749;SDS011;54550;48.838;8.828;2022-12-24T11:19:53;15.10;;;4.00;;
67749;SDS011;54550;48.838;8.828;2022-12-24T11:24:48;19.10;;;4.53;;
67749;SDS011;54550;48.838;8.828;2022-12-24T11:27:28;14.35;;;4.00;;
67749;SDS011;54550;48.838;8.828;2022-12-24T11:32:44;19.77;;;3.33;;
67749;SDS011;54550;48.838;8.828;2022-12-24T11:35:16;16.42;;;2.90;;
67749;SDS011;54550;48.838;8.828;2022-12-24T11:40:24;30.42;;;4.95;;
67749;SDS011;54550;48.838;8.828;2022-12-24T11:42:58;23.80;;;2.80;;
67749;SDS011;54550;48.838;8.828;2022-12-24T11:45:25;19.33;;;3.30;;
67749;SDS011;54550;48.838;8.828;2022-12-24T11:47:53;20.08;;;2.53;;
67749;SDS011;54550;48.838;8.828;2022-12-24T11:50:33;13.07;;;3.13;;
67749;SDS011;54550;48.838;8.828;2022-12-24T12:01:03;24.90;;;3.03;;
67749;SDS011;54550;48.838;8.828;2022-12-24T12:03:38;18.65;;;3.63;;
67749;SDS011;54550;48.838;8.828;2022-12-24T12:06:25;21.80;;;3.80;;
67749;SDS011;54550;48.838;8.828;2022-12-24T12:09:11;11.45;;;2.83;;
67749;SDS011;54550;48.838;8.828;2022-12-24T12:11:46;20.48;;;3.92;;
67749;SDS011;54550;48.838;8.828;2022-12-24T12:14:19;26.63;;;4.22;;
67749;SDS011;54550;48.838;8.828;2022-12-24T12:19:44;15.10;;;4.00;;
67749;SDS011;54550;48.838;8.828;2022-12-24T12:22:32;19.45;;;3.10;;
67749;SDS011;54550;48.838;8.828;2022-12-24T12:25:30;19.15;;;3.13;;
67749;SDS011;54550;48.838;8.828;2022-12-24T12:28:07;14.52;;;2.75;;
67749;SDS011;54550;48.838;8.828;2022-12-24T12:30:41;21.33;;;2.78;;
67749;SDS011;54550;48.838;8.828;2022-12-24T12:33:19;18.67;;;3.25;;
67749;SDS011;54550;48.838;8.828;2022-12-24T12:35:52;12.13;;;2.65;;
67749;SDS011;54550;48.838;8.828;2022-12-24T12:38:21;19.45;;;3.17;;
67749;SDS011;54550;48.838;8.828;2022-12-24T12:43:39;18.57;;;4.40;;
67749;SDS011;54550;48.838;8.828;2022-12-24T12:46:32;22.05;;;5.10;;
67749;SDS011;54550;48.838;8.828;2022-12-24T12:54:58;13.70;;;2.88;;
67749;SDS011;54550;48.838;8.828;2022-12-24T12:57:42;22.63;;;4.22;;
67749;SDS011;54550;48.838;8.828;2022-12-24T13:00:11;27.33;;;4.35;;
67749;SDS011;54550;48.838;8.828;2022-12-24T13:02:44;9.18;;;2.78;;
67749;SDS011;54550;48.838;8.828;2022-12-24T13:11:22;22.00;;;4.45;;
67749;SDS011;54550;48.838;8.828;2022-12-24T13:14:22;20.33;;;4.43;;
67749;SDS011;54550;48.838;8.828;2022-12-24T13:17:20;25.08;;;4.90;;
67749;SDS011;54550;48.838;8.828;2022-12-24T13:22:49;18.63;;;3.33;;
67749;SDS011;54550;48.838;8.828;2022-12-24T13:25:35;21.80;;;5.20;;
67749;SDS011;54550;48.838;8.828;2022-12-24T13:28:13;17.42;;;3.30;;
67749;SDS011;54550;48.838;8.828;2022-12-24T13:30:40;19.33;;;4.80;;
67749;SDS011;54550;48.838;8.828;2022-12-24T13:33:10;23.75;;;3.75;;
67749;SDS011;54550;48.838;8.828;2022-12-24T13:35:37;31.42;;;4.10;;
67749;SDS011;54550;48.838;8.828;2022-12-24T13:40:51;25.58;;;3.78;;
67749;SDS011;54550;48.838;8.828;2022-12-24T13:43:16;23.80;;;3.43;;
67749;SDS011;54550;48.838;8.828;2022-12-24T13:45:43;21.50;;;3.47;;
67749;SDS011;54550;48.838;8.828;2022-12-24T13:50:52;12.63;;;2.43;;
67749;SDS011;54550;48.838;8.828;2022-12-24T13:55:55;16.88;;;3.40;;
67749;SDS011;54550;48.838;8.828;2022-12-24T13:58:24;14.10;;;3.38;;
67749;SDS011;54550;48.838;8.828;2022-12-24T14:00:54;21.30;;;5.20;;
67749;SDS011;54550;48.838;8.828;2022-12-24T14:03:24;18.35;;;3.42;;
67749;SDS011;54550;48.838;8.828;2022-12-24T14:06:00;13.83;;;3.97;;
67749;SDS011;54550;48.838;8.828;2022-12-24T14:08:32;16.03;;;3.77;;
67749;SDS011;54550;48.838;8.828;2022-12-24T14:11:05;14.52;;;2.65;;
67749;SDS011;54550;48.838;8.828;2022-12-24T14:16:14;17.80;;;4.90;;
67749;SDS011;54550;48.838;8.828;2022-12-24T14:18:49;10.75;;;3.28;;
67749;SDS011;54550;48.838;8.828;2022-12-24T14:21:33;29.70;;;4.15;;
67749;SDS011;54550;48.838;8.828;2022-12-24T14:26:42;8.98;;;2.40;;
67749;SDS011;54550;48.838;8.828;2022-12-24T14:29:27;17.20;;;3.80;;
67749;SDS011;54550;48.838;8.828;2022-12-24T14:31:58;14.77;;;2.85;;
67749;SDS011;54550;48.838;8.828;2022-12-24T14:34:28;20.42;;;3.25;;
67749;SDS011;54550;48.838;8.828;2022-12-24T14:36:54;14.20;;;3.42;;
67749;SDS011;54550;48.838;8.828;2022-12-24T14:39:25;17.70;;;3.72;;
67749;SDS011;54550;48.838;8.828;2022-12-24T14:42:03;18.02;;;3.50;;
67749;SDS011;54550;48.838;8.828;2022-12-24T14:44:57;13.02;;;2.67;;
67749;SDS011;54550;48.838;8.828;2022-12-24T14:58:16;26.30;;;4.40;;
67749;SDS011;54550;48.838;8.828;2022-12-24T15:00:49;18.02;;;3.35;;
67749;SDS011;54550;48.838;8.828;2022-12-24T15:03:18;15.70;;;2.92;;
67749;SDS011;54550;48.838;8.828;2022-12-24T15:05:49;11.98;;;3.50;;
67749;SDS011;54550;48.838;8.828;2022-12-24T15:08:19;11.88;;;3.53;;
67749;SDS011;54550;48.838;8.828;2022-12-24T15:10:51;21.30;;;3.40;;
67749;SDS011;54550;48.838;8.828;2022-12-24T15:13:29;13.65;;;3.90;;
67749;SDS011;54550;48.838;8.828;2022-12-24T15:16:10;17.20;;;2.95;;
67749;SDS011;54550;48.838;8.828;2022-12-24T15:18:38;46.15;;;8.85;;
67749;SDS011;54550;48.838;8.828;2022-12-24T15:21:13;29.80;;;5.57;;
67749;SDS011;54550;48.838;8.828;2022-12-24T15:23:46;38.20;;;11.35;;
67749;SDS011;54550;48.838;8.828;2022-12-24T15:28:47;22.95;;;4.25;;
67749;SDS011;54550;48.838;8.828;2022-12-24T15:31:14;16.70;;;2.67;;
67749;SDS011;54550;48.838;8.828;2022-12-24T15:33:45;14.80;;;3.13;;
67749;SDS011;54550;48.838;8.828;2022-12-24T15:36:16;8.80;;;2.97;;
67749;SDS011;54550;48.838;8.828;2022-12-24T15:38:51;21.15;;;4.10;;
67749;SDS011;54550;48.838;8.828;2022-12-24T15:41:19;14.38;;;2.97;;
67749;SDS011;54550;48.838;8.828;2022-12-24T15:43:48;22.60;;;3.47;;
67749;SDS011;54550;48.838;8.828;2022-12-24T15:46:19;21.77;;;2.83;;
67749;SDS011;54550;48.838;8.828;2022-12-24T15:48:49;18.30;;;3.95;;
67749;SDS011;54550;48.838;8.828;2022-12-24T15:53:54;13.52;;;3.58;;
67749;SDS011;54550;48.838;8.828;2022-12-24T15:56:35;13.70;;;2.90;;
67749;SDS011;54550;48.838;8.828;2022-12-24T16:01:46;16.42;;;2.85;;
67749;SDS011;54550;48.838;8.828;2022-12-24T16:04:13;20.00;;;3.17;;
67749;SDS011;54550;48.838;8.828;2022-12-24T16:06:51;20.23;;;3.25;;
67749;SDS011;54550;48.838;8.828;2022-12-24T16:12:19;12.32;;;4.95;;
67749;SDS011;54550;48.838;8.828;2022-12-24T16:14:48;26.73;;;7.25;;
67749;SDS011;54550;48.838;8.828;2022-12-24T16:17:17;30.63;;;6.25;;
67749;SDS011;54550;48.838;8.828;2022-12-24T16:19:48;17.85;;;6.88;;
67749;SDS011;54550;48.838;8.828;2022-12-24T16:22:17;35.35;;;9.95;;
67749;SDS011;54550;48.838;8.828;2022-12-24T16:27:51;33.15;;;13.00;;
67749;SDS011;54550;48.838;8.828;2022-12-24T16:30:18;19.00;;;10.25;;
67749;SDS011;54550;48.838;8.828;2022-12-24T16:32:44;29.15;;;10.25;;
67749;SDS011;54550;48.838;8.828;2022-12-24T16:35:16;34.55;;;12.05;;
67749;SDS011;54550;48.838;8.828;2022-12-24T16:37:48;28.17;;;12.88;;
67749;SDS011;54550;48.838;8.828;2022-12-24T16:40:14;31.33;;;13.87;;
67749;SDS011;54550;48.838;8.828;2022-12-24T16:42:40;39.17;;;17.98;;